Time;durP1;ratioP1;P1;durP2;ratioP2;P2;SDS_P1;SDS_P2;PMS_P1;PMS_P2;Temp;Humidity;BMP_temperature;BMP_pressure;BME280_temperature;BME280_humidity;BME280_pressure;Samples;Min_cycle;Max_cycle;Signal;HPM_P1;HPM_P2
2022/07/25 00:00:31;;;;;;;;;;;;;;;24.22;56.78;100716.53;7287253;19;153466;-64
2022/07/25 00:02:57;;;;;;;;;;;;;;;24.25;56.54;100713.88;7288096;19;152947;-63
2022/07/25 00:05:24;;;;;;;;;;;;;;;24.34;56.83;100700.53;7286062;19;152999;-64
2022/07/25 00:07:51;;;;;;;;;;;;;;;24.27;56.60;100697.41;7285947;19;153781;-63
2022/07/25 00:10:17;;;;;;;;;;;;;;;24.32;56.56;100693.56;7287752;19;152065;-64
2022/07/25 00:12:44;;;;;;;;;;;;;;;24.27;56.85;100683.28;7288415;19;153432;-63
2022/07/25 00:15:11;;;;;;;;;;;;;;;24.24;56.90;100681.16;7285980;19;154138;-64
2022/07/25 00:17:38;;;;;;;;;;;;;;;24.21;57.18;100672.53;7294512;19;151790;-64
2022/07/25 00:20:05;;;;;;;;;;;;;;;24.14;57.39;100678.69;7284125;19;153522;-64
2022/07/25 00:22:32;;;;;;;;;;;;;;;24.27;57.14;100680.47;7287302;19;151820;-64
2022/07/25 00:24:59;;;;;;;;;;;;;;;24.26;57.06;100673.16;7287288;19;152977;-64
2022/07/25 00:27:26;;;;;;;;;;;;;;;24.23;57.17;100673.84;7287101;19;154142;-64
2022/07/25 00:29:53;;;;;;;;;;;;;;;24.26;57.34;100659.03;7286865;19;152081;-64
2022/07/25 00:32:20;;;;;;;;;;;;;;;24.20;57.77;100659.59;7287637;19;153969;-64
2022/07/25 00:34:47;;;;;;;;;;;;;;;24.22;57.58;100662.88;7283101;19;153781;-64
2022/07/25 00:37:13;;;;;;;;;;;;;;;24.12;58.10;100658.41;7286695;19;152861;-63
2022/07/25 00:39:40;;;;;;;;;;;;;;;24.22;57.87;100657.25;7294110;19;152995;-64
2022/07/25 00:42:07;;;;;;;;;;;;;;;24.16;58.38;100644.50;7285592;19;151663;-64
2022/07/25 00:44:34;;;;;;;;;;;;;;;24.11;58.58;100656.78;7287300;19;152118;-64
2022/07/25 00:47:00;;;;;;;;;;;;;;;24.13;58.72;100662.91;7285889;19;154237;-64
2022/07/25 00:49:27;;;;;;;;;;;;;;;24.09;58.45;100659.09;7284851;19;152451;-64
2022/07/25 00:51:54;;;;;;;;;;;;;;;24.20;58.47;100666.06;7286392;19;152605;-64
2022/07/25 00:54:21;;;;;;;;;;;;;;;24.11;58.37;100662.44;7284897;19;153970;-64
2022/07/25 00:56:48;;;;;;;;;;;;;;;24.08;58.83;100648.97;7284755;19;151686;-64
2022/07/25 00:59:17;;;;;;;;;;;;;;;24.13;58.69;100645.97;7286727;19;153539;-64
2022/07/25 01:01:46;;;;;;;;;;;;;;;24.14;58.48;100644.81;7293175;19;153399;-64
2022/07/25 01:04:14;;;;;;;;;;;;;;;24.13;58.45;100645.97;7281843;19;152432;-64
2022/07/25 01:06:41;;;;;;;;;;;;;;;24.12;58.84;100649.94;7284752;19;154299;-64
2022/07/25 01:09:08;;;;;;;;;;;;;;;24.10;58.34;100645.81;7287282;19;153020;-63
2022/07/25 01:11:35;;;;;;;;;;;;;;;24.21;58.12;100645.13;7286272;19;153424;-64
2022/07/25 01:14:02;;;;;;;;;;;;;;;24.10;58.54;100626.06;7284565;19;153821;-64
2022/07/25 01:16:30;;;;;;;;;;;;;;;24.09;58.08;100636.53;7284697;19;151998;-64
2022/07/25 01:18:56;;;;;;;;;;;;;;;24.10;58.48;100641.00;7284683;19;153032;-64
2022/07/25 01:21:23;;;;;;;;;;;;;;;24.12;58.07;100624.53;7283798;19;153250;-64
2022/07/25 01:23:50;;;;;;;;;;;;;;;24.04;58.37;100638.69;7294686;19;152331;-64
2022/07/25 01:26:17;;;;;;;;;;;;;;;24.04;58.10;100627.41;7284406;19;153118;-64
2022/07/25 01:28:43;;;;;;;;;;;;;;;24.15;57.76;100631.50;7284201;19;153053;-64
2022/07/25 01:31:10;;;;;;;;;;;;;;;23.99;58.44;100625.59;7285930;19;153341;-64
2022/07/25 01:33:37;;;;;;;;;;;;;;;24.01;58.00;100628.09;7282522;19;153368;-64
2022/07/25 01:36:04;;;;;;;;;;;;;;;24.03;57.56;100635.06;7282469;19;152667;-64
2022/07/25 01:38:30;;;;;;;;;;;;;;;24.01;57.77;100634.59;7285547;19;152498;-64
2022/07/25 01:40:57;;;;;;;;;;;;;;;23.99;57.29;100639.72;7285645;19;153386;-63
2022/07/25 01:43:24;;;;;;;;;;;;;;;23.94;57.58;100620.97;7291889;19;152219;-63
2022/07/25 01:45:50;;;;;;;;;;;;;;;24.02;56.99;100632.59;7285998;19;153225;-63
2022/07/25 01:48:17;;;;;;;;;;;;;;;24.08;56.49;100639.69;7285096;19;152341;-64
2022/07/25 01:50:45;;;;;;;;;;;;;;;24.00;56.62;100632.09;7282552;19;154107;-63
2022/07/25 01:53:14;;;;;;;;;;;;;;;23.91;56.85;100637.78;7283720;19;154480;-64
2022/07/25 01:55:40;;;;;;;;;;;;;;;23.99;56.19;100636.06;7280366;19;152208;-64
2022/07/25 01:58:08;;;;;;;;;;;;;;;23.97;56.00;100647.72;7284484;19;153586;-63
2022/07/25 02:00:35;;;;;;;;;;;;;;;23.99;55.76;100631.25;7284690;19;153300;-64
2022/07/25 02:05:47;;;;;;;;;;;;;;;23.88;56.13;100624.34;7290469;19;152971;-64
2022/07/25 02:08:13;;;;;;;;;;;;;;;23.96;55.30;100623.47;7285739;19;152706;-63
2022/07/25 02:10:42;;;;;;;;;;;;;;;23.90;55.36;100614.38;7285842;19;153679;-64
2022/07/25 02:13:09;;;;;;;;;;;;;;;23.92;55.44;100626.16;7283899;19;154127;-65
2022/07/25 02:15:35;;;;;;;;;;;;;;;23.93;55.07;100638.28;7283684;19;151911;-64
2022/07/25 02:18:02;;;;;;;;;;;;;;;23.84;55.13;100626.19;7282514;19;152451;-64
2022/07/25 02:20:29;;;;;;;;;;;;;;;23.87;55.18;100634.81;7281219;19;153176;-64
2022/07/25 02:22:56;;;;;;;;;;;;;;;23.87;54.96;100625.50;7284852;19;153229;-64
2022/07/25 02:25:22;;;;;;;;;;;;;;;23.86;54.65;100624.69;7283236;19;153465;-64
2022/07/25 02:27:49;;;;;;;;;;;;;;;23.85;54.58;100631.50;7290509;19;152568;-64
2022/07/25 02:30:16;;;;;;;;;;;;;;;23.83;54.89;100619.72;7284487;19;153266;-64
2022/07/25 02:32:45;;;;;;;;;;;;;;;23.83;54.71;100633.00;7283885;19;152919;-64
2022/07/25 02:35:12;;;;;;;;;;;;;;;23.74;54.77;100627.41;7280824;19;153027;-64
2022/07/25 02:37:39;;;;;;;;;;;;;;;23.75;54.85;100611.31;7282349;19;152609;-63
2022/07/25 02:40:06;;;;;;;;;;;;;;;23.78;54.85;100607.81;7282805;19;154110;-63
2022/07/25 02:42:33;;;;;;;;;;;;;;;23.78;55.00;100602.16;7283758;19;152678;-63
2022/07/25 02:44:59;;;;;;;;;;;;;;;23.79;54.79;100607.47;7283241;19;153290;-64
2022/07/25 02:47:26;;;;;;;;;;;;;;;23.72;54.91;100604.31;7283924;19;153985;-64
2022/07/25 02:49:53;;;;;;;;;;;;;;;23.70;54.69;100609.50;7288614;19;152277;-64
2022/07/25 02:52:20;;;;;;;;;;;;;;;23.69;54.97;100613.47;7281591;19;152943;-64
2022/07/25 02:54:52;;;;;;;;;;;;;;;23.66;55.02;100618.97;7282589;19;151904;-64
2022/07/25 02:57:19;;;;;;;;;;;;;;;23.81;54.64;100622.03;7281773;19;153255;-64
2022/07/25 02:59:45;;;;;;;;;;;;;;;23.69;54.89;100619.13;7282498;19;154544;-64
2022/07/25 03:02:12;;;;;;;;;;;;;;;23.72;54.71;100609.13;7283508;19;151737;-64
2022/07/25 03:04:39;;;;;;;;;;;;;;;23.70;54.81;100614.31;7280410;19;152340;-64
2022/07/25 03:07:05;;;;;;;;;;;;;;;23.70;54.71;100611.50;7279684;19;154514;-64
2022/07/25 03:09:32;;;;;;;;;;;;;;;23.75;54.54;100608.47;7282698;19;152025;-64
2022/07/25 03:11:59;;;;;;;;;;;;;;;23.67;54.97;100610.16;7296278;19;152948;-63
2022/07/25 03:14:26;;;;;;;;;;;;;;;23.60;55.10;100607.03;7289620;19;153573;-64
2022/07/25 03:16:52;;;;;;;;;;;;;;;23.74;54.90;100606.81;7288097;19;153527;-63
2022/07/25 03:19:19;;;;;;;;;;;;;;;23.61;55.29;100596.59;7284694;19;153445;-64
2022/07/25 03:21:46;;;;;;;;;;;;;;;23.59;55.27;100608.19;7287523;19;152474;-64
2022/07/25 03:24:12;;;;;;;;;;;;;;;23.63;55.29;100609.19;7289238;19;153621;-64
2022/07/25 03:26:39;;;;;;;;;;;;;;;23.63;55.08;100606.34;7288335;19;154026;-63
2022/07/25 03:29:06;;;;;;;;;;;;;;;23.61;55.53;100608.72;7289223;19;154970;-64
2022/07/25 03:31:33;;;;;;;;;;;;;;;23.57;55.78;100612.53;7290045;19;152662;-64
2022/07/25 03:34:00;;;;;;;;;;;;;;;23.62;55.53;100613.16;7292044;19;152290;-64
2022/07/25 03:36:27;;;;;;;;;;;;;;;23.61;55.26;100607.88;7287414;19;152452;-64
2022/07/25 03:38:55;;;;;;;;;;;;;;;23.62;55.38;100598.25;7286135;19;155531;-64
2022/07/25 03:41:22;;;;;;;;;;;;;;;23.58;55.28;100597.25;7286845;19;152535;-63
2022/07/25 03:43:53;;;;;;;;;;;;;;;23.65;55.32;100595.56;7288821;19;152908;-64
2022/07/25 03:46:19;;;;;;;;;;;;;;;23.55;55.73;100595.13;7288339;19;153814;-64
2022/07/25 03:48:46;;;;;;;;;;;;;;;23.66;55.15;100596.41;7285863;19;152392;-64
2022/07/25 03:51:13;;;;;;;;;;;;;;;23.71;54.93;100587.75;7287607;19;153439;-63
2022/07/25 03:56:25;;;;;;;;;;;;;;;23.55;55.19;100595.13;7288775;19;152789;-64
2022/07/25 03:58:52;;;;;;;;;;;;;;;23.58;55.25;100583.16;7285137;19;153434;-64
2022/07/25 04:01:19;;;;;;;;;;;;;;;23.56;55.38;100585.50;7287478;19;152329;-64
2022/07/25 04:03:47;;;;;;;;;;;;;;;23.51;55.64;100599.78;7283824;19;152734;-64
2022/07/25 04:06:14;;;;;;;;;;;;;;;23.54;55.21;100596.28;7285732;19;154679;-64
2022/07/25 04:08:41;;;;;;;;;;;;;;;23.62;55.39;100601.88;7289432;19;152372;-64
2022/07/25 04:11:08;;;;;;;;;;;;;;;23.55;55.48;100603.56;7288359;19;152624;-64
2022/07/25 04:13:35;;;;;;;;;;;;;;;23.55;55.33;100601.59;7286847;19;153617;-64
2022/07/25 04:16:02;;;;;;;;;;;;;;;23.51;55.49;100596.97;7295962;19;152134;-64
2022/07/25 04:18:30;;;;;;;;;;;;;;;23.50;55.34;100590.47;7282292;19;152860;-64
2022/07/25 04:20:59;;;;;;;;;;;;;;;23.56;55.30;100588.31;7285497;19;152486;-64
2022/07/25 04:23:27;;;;;;;;;;;;;;;23.56;55.35;100591.13;7286285;19;152495;-64
2022/07/25 04:25:54;;;;;;;;;;;;;;;23.50;55.54;100590.47;7286936;19;153377;-64
2022/07/25 04:28:21;;;;;;;;;;;;;;;23.48;55.63;100585.16;7287029;19;151764;-64
2022/07/25 04:30:48;;;;;;;;;;;;;;;23.52;55.40;100576.06;7287732;19;152773;-64
2022/07/25 04:33:15;;;;;;;;;;;;;;;23.53;55.84;100581.34;7286027;19;153777;-64
2022/07/25 04:35:42;;;;;;;;;;;;;;;23.50;55.62;100576.38;7281400;19;152855;-64
2022/07/25 04:38:09;;;;;;;;;;;;;;;23.45;56.02;100571.75;7291784;19;153721;-64
2022/07/25 04:40:38;;;;;;;;;;;;;;;23.44;56.07;100561.63;7286911;19;152497;-64
2022/07/25 04:43:07;;;;;;;;;;;;;;;23.48;56.04;100565.44;7286910;19;153387;-64
2022/07/25 04:45:34;;;;;;;;;;;;;;;23.49;55.89;100572.72;7286070;19;152620;-64
2022/07/25 04:48:01;;;;;;;;;;;;;;;23.40;56.08;100579.53;7286728;19;152585;-64
2022/07/25 04:50:28;;;;;;;;;;;;;;;23.55;55.23;100583.84;7284359;19;153668;-64
2022/07/25 04:52:55;;;;;;;;;;;;;;;23.51;55.55;100582.84;7284923;19;153416;-67
2022/07/25 04:55:22;;;;;;;;;;;;;;;23.39;56.07;100587.16;7286495;19;151858;-64
2022/07/25 04:57:49;;;;;;;;;;;;;;;23.41;56.18;100581.19;7285522;19;153384;-64
2022/07/25 05:00:16;;;;;;;;;;;;;;;23.41;56.13;100575.56;7293307;19;153544;-63
2022/07/25 05:02:43;;;;;;;;;;;;;;;23.37;56.12;100583.03;7286170;19;154294;-64
2022/07/25 05:05:10;;;;;;;;;;;;;;;23.44;55.54;100578.56;7283958;19;153695;-64
2022/07/25 05:07:47;;;;;;;;;;;;;;;23.41;55.85;100582.03;7285752;19;152750;-64
2022/07/25 05:10:14;;;;;;;;;;;;;;;23.45;55.56;100583.03;7284644;19;153381;-64
2022/07/25 05:12:41;;;;;;;;;;;;;;;23.47;55.51;100569.44;7283725;19;153372;-64
2022/07/25 05:15:08;;;;;;;;;;;;;;;23.37;55.91;100583.03;7286345;19;152115;-64
2022/07/25 05:17:35;;;;;;;;;;;;;;;23.36;55.49;100587.00;7283737;19;151955;-64
2022/07/25 05:20:01;;;;;;;;;;;;;;;23.40;55.33;100573.91;7282713;19;153232;-64
2022/07/25 05:22:28;;;;;;;;;;;;;;;23.32;55.73;100575.59;7292519;19;152399;-64
2022/07/25 05:24:55;;;;;;;;;;;;;;;23.37;55.49;100581.06;7283597;19;153441;-64
2022/07/25 05:27:22;;;;;;;;;;;;;;;23.31;55.61;100582.38;7286274;19;152067;-64
2022/07/25 05:29:48;;;;;;;;;;;;;;;23.29;55.68;100584.72;7285122;19;153902;-64
2022/07/25 05:32:15;;;;;;;;;;;;;;;23.44;55.23;100581.38;7283603;19;154379;-63
2022/07/25 05:34:42;;;;;;;;;;;;;;;23.41;54.99;100582.03;7281270;19;152307;-64
2022/07/25 05:37:08;;;;;;;;;;;;;;;23.37;55.04;100578.22;7284235;19;152919;-64
2022/07/25 05:39:38;;;;;;;;;;;;;;;23.34;55.29;100583.72;7284467;19;153289;-64
2022/07/25 05:42:08;;;;;;;;;;;;;;;23.30;55.61;100597.66;7293632;19;152195;-64
2022/07/25 05:44:35;;;;;;;;;;;;;;;23.32;55.43;100586.88;7281605;19;153483;-64
2022/07/25 05:47:01;;;;;;;;;;;;;;;23.34;55.13;100590.19;7284096;19;152417;-64
2022/07/25 05:49:28;;;;;;;;;;;;;;;23.30;55.65;100585.56;7283842;19;152656;-64
2022/07/25 05:51:55;;;;;;;;;;;;;;;23.27;55.64;100592.69;7283486;19;153935;-64
2022/07/25 05:54:22;;;;;;;;;;;;;;;23.21;55.32;100594.03;7284122;19;152204;-64
2022/07/25 05:56:48;;;;;;;;;;;;;;;23.37;55.17;100586.69;7286683;19;152752;-64
2022/07/25 05:59:17;;;;;;;;;;;;;;;23.32;55.10;100586.88;7283845;19;154140;-64
2022/07/25 06:01:44;;;;;;;;;;;;;;;23.20;55.47;100589.56;7282901;19;153159;-64
2022/07/25 06:04:11;;;;;;;;;;;;;;;23.26;55.12;100579.75;7286292;19;153150;-64
2022/07/25 06:06:38;;;;;;;;;;;;;;;23.24;55.10;100576.44;7283339;19;151651;-64
2022/07/25 06:09:05;;;;;;;;;;;;;;;23.19;55.07;100584.25;7285173;19;152172;-64
2022/07/25 06:11:33;;;;;;;;;;;;;;;23.32;54.62;100583.22;7283032;19;154072;-63
2022/07/25 06:14:00;;;;;;;;;;;;;;;23.16;54.94;100597.03;7284602;19;152101;-64
2022/07/25 06:16:27;;;;;;;;;;;;;;;23.22;54.37;100590.03;7284984;19;152851;-64
2022/07/25 06:18:54;;;;;;;;;;;;;;;23.24;54.76;100592.53;7279217;19;153399;-64
2022/07/25 06:21:21;;;;;;;;;;;;;;;23.31;54.05;100601.28;7284158;19;152124;-64
2022/07/25 06:23:48;;;;;;;;;;;;;;;23.26;54.33;100590.22;7284922;19;153316;-63
2022/07/25 06:26:14;;;;;;;;;;;;;;;23.21;54.54;100590.41;7290818;19;154432;-64
2022/07/25 06:28:41;;;;;;;;;;;;;;;23.18;54.16;100594.69;7284553;19;154230;-63
2022/07/25 06:31:08;;;;;;;;;;;;;;;23.18;54.14;100596.69;7283188;19;153236;-64
2022/07/25 06:33:35;;;;;;;;;;;;;;;23.23;53.60;100617.06;7283012;19;151752;-64
2022/07/25 06:36:03;;;;;;;;;;;;;;;23.32;53.33;100594.50;7282178;19;155347;-64
2022/07/25 06:38:30;;;;;;;;;;;;;;;23.29;53.55;100626.19;7281778;19;154770;-63
2022/07/25 06:40:57;;;;;;;;;;;;;;;23.25;53.06;100606.31;7284383;19;152405;-64
2022/07/25 06:43:24;;;;;;;;;;;;;;;23.25;52.52;100611.94;7284324;19;153322;-63
2022/07/25 06:45:51;;;;;;;;;;;;;;;23.21;52.43;100604.50;7282073;19;154510;-64
2022/07/25 06:48:17;;;;;;;;;;;;;;;23.28;52.59;100605.63;7291312;19;152598;-63
2022/07/25 06:50:44;;;;;;;;;;;;;;;23.25;52.58;100622.38;7279933;19;153255;-63
2022/07/25 06:53:11;;;;;;;;;;;;;;;23.17;52.67;100609.94;7283147;19;155248;-64
2022/07/25 06:55:38;;;;;;;;;;;;;;;23.13;52.45;100611.78;7283432;19;153343;-63
2022/07/25 06:58:04;;;;;;;;;;;;;;;23.07;52.60;100609.47;7281940;19;153816;-64
2022/07/25 07:00:33;;;;;;;;;;;;;;;23.14;52.72;100618.25;7282570;19;153847;-64
2022/07/25 07:03:03;;;;;;;;;;;;;;;23.18;52.42;100611.59;7281910;19;152510;-64
2022/07/25 07:05:31;;;;;;;;;;;;;;;23.13;52.02;100617.41;7279894;19;153761;-63
2022/07/25 07:07:59;;;;;;;;;;;;;;;23.13;52.26;100620.22;7283959;19;154582;-63
2022/07/25 07:10:26;;;;;;;;;;;;;;;23.09;52.27;100621.22;7289656;19;152851;-64
2022/07/25 07:13:07;;;;;;;;;;;;;;;23.14;52.07;100621.91;7282781;19;152099;-64
2022/07/25 07:15:34;;;;;;;;;;;;;;;23.10;51.85;100623.72;7283142;19;152923;-63
2022/07/25 07:18:01;;;;;;;;;;;;;;;23.07;52.14;100624.41;7281360;19;155566;-63
2022/07/25 07:20:28;;;;;;;;;;;;;;;23.04;52.12;100622.22;7280387;19;151986;-63
2022/07/25 07:22:55;;;;;;;;;;;;;;;23.10;52.11;100615.28;7282053;19;153463;-64
2022/07/25 07:25:23;;;;;;;;;;;;;;;23.05;51.82;100623.91;7282032;19;154688;-64
2022/07/25 07:27:53;;;;;;;;;;;;;;;23.09;51.95;100624.88;7282102;19;152174;-64
2022/07/25 07:30:20;;;;;;;;;;;;;;;23.03;51.74;100618.59;7284045;19;153348;-63
2022/07/25 07:32:59;;;;;;;;;;;;;;;23.10;51.67;100620.06;7288997;19;153782;-63
2022/07/25 07:35:26;;;;;;;;;;;;;;;23.11;51.44;100616.09;7278371;19;152039;-64
2022/07/25 07:37:54;;;;;;;;;;;;;;;23.07;51.57;100620.75;7280793;19;153921;-63
2022/07/25 07:40:22;;;;;;;;;;;;;;;23.09;51.16;100622.06;7282132;19;151716;-64
2022/07/25 07:42:50;;;;;;;;;;;;;;;23.00;51.29;100629.69;7282394;19;152424;-64
2022/07/25 07:45:19;;;;;;;;;;;;;;;23.01;51.54;100639.81;7278874;19;152284;-64
2022/07/25 07:47:48;;;;;;;;;;;;;;;23.09;51.02;100641.78;7282660;19;152865;-64
2022/07/25 07:50:17;;;;;;;;;;;;;;;23.09;50.65;100640.97;7278608;19;152451;-64
2022/07/25 07:52:44;;;;;;;;;;;;;;;23.14;50.51;100638.81;7285385;19;154064;-63
2022/07/25 07:57:58;;;;;;;;;;;;;;;23.11;50.33;100636.66;7287144;19;153274;-63
2022/07/25 08:00:26;;;;;;;;;;;;;;;23.17;50.31;100631.69;7289263;19;151998;-64
2022/07/25 08:02:54;;;;;;;;;;;;;;;23.11;50.00;100627.38;7286137;19;152992;-64
2022/07/25 08:05:25;;;;;;;;;;;;;;;23.16;50.02;100627.22;7284915;19;155314;-64
2022/07/25 08:07:52;;;;;;;;;;;;;;;23.12;50.13;100629.03;7288911;19;152493;-64
2022/07/25 08:10:29;;;;;;;;;;;;;;;23.04;50.31;100625.88;7288254;19;153884;-64
2022/07/25 08:12:56;;;;;;;;;;;;;;;23.03;50.33;100610.13;7286626;19;152435;-64
2022/07/25 08:15:23;;;;;;;;;;;;;;;22.99;50.12;100622.41;7295236;19;152118;-63
2022/07/25 08:17:50;;;;;;;;;;;;;;;22.99;49.99;100639.31;7286858;19;153608;-64
2022/07/25 08:20:18;;;;;;;;;;;;;;;23.01;49.43;100629.38;7283701;19;152855;-64
2022/07/25 08:23:03;;;;;;;;;;;;;;;23.01;49.78;100635.00;7285637;19;153137;-64
2022/07/25 08:25:31;;;;;;;;;;;;;;;23.12;49.37;100641.16;7285979;19;153964;-64
2022/07/25 08:27:58;;;;;;;;;;;;;;;22.96;49.32;100632.38;7287250;19;152044;-64
2022/07/25 08:30:25;;;;;;;;;;;;;;;23.04;48.96;100625.06;7287082;19;153198;-64
2022/07/25 08:32:54;;;;;;;;;;;;;;;23.05;48.46;100638.81;7286353;19;154370;-64
2022/07/25 08:35:23;;;;;;;;;;;;;;;23.07;48.66;100643.31;7282855;19;152032;-64
2022/07/25 08:37:51;;;;;;;;;;;;;;;23.10;48.31;100648.25;7294356;19;152744;-64
2022/07/25 08:40:20;;;;;;;;;;;;;;;23.14;47.98;100650.09;7288180;19;151932;-64
2022/07/25 08:42:48;;;;;;;;;;;;;;;23.10;48.25;100651.91;7286795;19;152583;-64
2022/07/25 08:45:16;;;;;;;;;;;;;;;23.02;47.86;100659.22;7285220;19;153547;-64
2022/07/25 08:47:45;;;;;;;;;;;;;;;23.01;48.36;100654.75;7287439;19;152805;-64
2022/07/25 08:50:13;;;;;;;;;;;;;;;23.04;48.26;100673.78;7284685;19;153987;-63
2022/07/25 08:52:41;;;;;;;;;;;;;;;23.04;48.10;100661.69;7285384;19;153350;-64
2022/07/25 08:55:12;;;;;;;;;;;;;;;22.96;48.35;100670.97;7285464;19;152148;-64
2022/07/25 08:57:42;;;;;;;;;;;;;;;23.01;48.31;100660.38;7286155;19;152836;-63
2022/07/25 09:00:13;;;;;;;;;;;;;;;23.00;48.77;100675.63;7290889;19;153930;-64
2022/07/25 09:02:40;;;;;;;;;;;;;;;23.00;48.28;100661.53;7284204;19;152518;-64
2022/07/25 09:05:10;;;;;;;;;;;;;;;23.04;48.29;100672.97;7282560;19;153354;-64
2022/07/25 09:07:42;;;;;;;;;;;;;;;23.07;48.14;100655.41;7283268;19;152312;-64
2022/07/25 09:10:13;;;;;;;;;;;;;;;23.04;48.26;100661.69;7285676;19;153372;-64
2022/07/25 09:12:40;;;;;;;;;;;;;;;23.04;48.39;100656.88;7285354;19;154364;-64
2022/07/25 09:15:07;;;;;;;;;;;;;;;23.04;48.00;100651.25;7284860;19;152809;-64
2022/07/25 09:17:36;;;;;;;;;;;;;;;23.09;47.86;100663.50;7286091;19;152663;-64
2022/07/25 09:20:07;;;;;;;;;;;;;;;23.11;47.66;100670.47;7276967;19;153770;-64
2022/07/25 09:22:42;;;;;;;;;;;;;;;23.17;47.75;100666.31;7293103;19;152270;-64
2022/07/25 09:25:18;;;;;;;;;;;;;;;23.16;47.64;100667.50;7284673;19;154223;-64
2022/07/25 09:27:45;;;;;;;;;;;;;;;23.10;47.86;100682.91;7286221;19;152819;-64
2022/07/25 09:30:13;;;;;;;;;;;;;;;23.15;47.26;100679.09;7286740;19;153509;-63
2022/07/25 09:32:40;;;;;;;;;;;;;;;23.14;47.03;100703.63;7285273;19;153842;-64
2022/07/25 09:35:07;;;;;;;;;;;;;;;23.10;47.38;100685.72;7281730;19;153366;-64
2022/07/25 09:37:34;;;;;;;;;;;;;;;23.10;47.11;100677.28;7285085;19;152615;-64
2022/07/25 09:40:00;;;;;;;;;;;;;;;23.19;47.08;100688.53;7283353;19;153254;-64
2022/07/25 09:42:31;;;;;;;;;;;;;;;23.17;46.91;100688.06;7286093;19;153021;-64
2022/07/25 09:44:58;;;;;;;;;;;;;;;23.22;46.66;100694.34;7291470;19;152678;-63
2022/07/25 09:47:29;;;;;;;;;;;;;;;23.13;47.34;100675.78;7283322;19;152362;-63
2022/07/25 09:49:56;;;;;;;;;;;;;;;23.24;46.95;100677.09;7281235;19;153725;-64
2022/07/25 09:52:23;;;;;;;;;;;;;;;23.25;46.55;100687.22;7283465;19;155987;-63
2022/07/25 09:54:57;;;;;;;;;;;;;;;23.26;46.78;100681.22;7283861;19;152220;-64
2022/07/25 09:57:28;;;;;;;;;;;;;;;23.24;46.51;100694.00;7285731;19;152076;-64
2022/07/25 09:59:57;;;;;;;;;;;;;;;23.24;46.48;100694.84;7281911;19;153333;-64
2022/07/25 10:02:24;;;;;;;;;;;;;;;23.27;46.57;100680.06;7284806;19;151784;-64
2022/07/25 10:05:07;;;;;;;;;;;;;;;23.24;46.14;100692.03;7289806;19;154305;-64
2022/07/25 10:07:36;;;;;;;;;;;;;;;23.27;46.51;100699.81;7284284;19;151693;-64
2022/07/25 10:10:03;;;;;;;;;;;;;;;23.24;46.36;100688.38;7283788;19;154703;-64
2022/07/25 10:12:30;;;;;;;;;;;;;;;23.24;46.42;100694.00;7284250;19;153605;-64
2022/07/25 10:15:04;;;;;;;;;;;;;;;23.21;46.11;100687.06;7285071;19;152209;-64
2022/07/25 10:17:32;;;;;;;;;;;;;;;23.26;46.38;100711.44;7285062;19;152201;-64
2022/07/25 10:20:00;;;;;;;;;;;;;;;23.28;46.28;100690.19;7277610;19;154400;-64
2022/07/25 10:22:36;;;;;;;;;;;;;;;23.24;46.23;100706.13;7284469;19;155644;-64
2022/07/25 10:25:21;;;;;;;;;;;;;;;23.24;46.28;100700.47;7283595;19;154009;-64
2022/07/25 10:27:51;;;;;;;;;;;;;;;23.22;46.26;100713.22;7290298;19;153253;-63
2022/07/25 10:30:23;;;;;;;;;;;;;;;23.28;46.34;100723.19;7284382;19;152874;-63
2022/07/25 10:32:56;;;;;;;;;;;;;;;23.28;46.25;100717.56;7283967;19;153712;-63
2022/07/25 10:35:24;;;;;;;;;;;;;;;23.30;45.95;100710.44;7281120;19;152355;-64
2022/07/25 10:37:52;;;;;;;;;;;;;;;23.34;46.10;100731.16;7281856;19;153960;-64
2022/07/25 10:40:29;;;;;;;;;;;;;;;23.34;46.08;100742.44;7281486;19;154656;-64
2022/07/25 10:42:59;;;;;;;;;;;;;;;23.34;46.46;100730.31;7284259;19;152575;-64
2022/07/25 10:45:32;;;;;;;;;;;;;;;23.34;46.53;100728.34;7283637;19;152062;-64
2022/07/25 10:48:08;;;;;;;;;;;;;;;23.32;46.09;100725.00;7283617;19;154045;-64
2022/07/25 10:50:45;;;;;;;;;;;;;;;23.37;46.15;100732.47;7288527;19;152238;-64
2022/07/25 10:53:32;;;;;;;;;;;;;;;23.33;46.40;100743.59;7280949;19;155260;-63
2022/07/25 10:56:06;;;;;;;;;;;;;;;23.33;46.42;100745.59;7281381;19;152204;-64
2022/07/25 10:58:42;;;;;;;;;;;;;;;23.42;45.88;100738.78;7284737;19;153190;-64
2022/07/25 11:01:09;;;;;;;;;;;;;;;23.32;46.19;100746.72;7282453;19;152822;-63
2022/07/25 11:03:36;;;;;;;;;;;;;;;23.31;46.42;100740.25;7278920;19;152563;-64
2022/07/25 11:06:03;;;;;;;;;;;;;;;23.40;46.23;100743.91;7282506;19;155448;-63
2022/07/25 11:08:32;;;;;;;;;;;;;;;23.43;46.67;100748.06;7282093;19;153292;-63
2022/07/25 11:10:58;;;;;;;;;;;;;;;23.38;47.19;100743.44;7284221;19;151672;-64
2022/07/25 11:13:25;;;;;;;;;;;;;;;23.45;47.19;100740.94;7289332;19;153370;-63
2022/07/25 11:15:57;;;;;;;;;;;;;;;23.44;47.18;100753.38;7284281;19;151999;-64
2022/07/25 11:18:32;;;;;;;;;;;;;;;23.42;47.26;100760.50;7283074;19;153348;-64
2022/07/25 11:21:00;;;;;;;;;;;;;;;23.43;47.13;100760.19;7277396;19;154106;-64
2022/07/25 11:23:32;;;;;;;;;;;;;;;23.46;47.47;100762.34;7282477;19;152459;-63
2022/07/25 11:26:06;;;;;;;;;;;;;;;23.48;47.66;100767.69;7281727;19;152243;-64
2022/07/25 11:28:37;;;;;;;;;;;;;;;23.45;47.83;100762.69;7281632;19;154352;-64
2022/07/25 11:31:04;;;;;;;;;;;;;;;23.45;48.03;100773.97;7283797;19;152583;-63
2022/07/25 11:33:31;;;;;;;;;;;;;;;23.48;47.82;100770.50;7288112;19;152877;-64
2022/07/25 11:35:58;;;;;;;;;;;;;;;23.46;48.12;100782.09;7295108;19;154403;-64
2022/07/25 11:38:25;;;;;;;;;;;;;;;23.40;48.34;100774.94;7289205;19;153356;-64
2022/07/25 11:40:52;;;;;;;;;;;;;;;23.43;48.47;100776.28;7286201;19;154249;-64
2022/07/25 11:43:23;;;;;;;;;;;;;;;23.43;48.68;100790.38;7288669;19;155685;-63
2022/07/25 11:46:07;;;;;;;;;;;;;;;23.45;48.49;100783.25;7289771;19;153011;-64
2022/07/25 11:48:37;;;;;;;;;;;;;;;23.37;48.83;100786.88;7285746;19;152538;-64
2022/07/25 11:51:15;;;;;;;;;;;;;;;23.46;49.13;100793.38;7284429;19;152516;-64
2022/07/25 11:53:45;;;;;;;;;;;;;;;23.52;48.69;100779.09;7286543;19;152388;-64
2022/07/25 11:56:13;;;;;;;;;;;;;;;23.48;49.07;100793.06;7287840;19;153917;-63
2022/07/25 11:59:00;;;;;;;;;;;;;;;23.49;48.86;100770.13;7294822;19;152386;-64
2022/07/25 12:01:37;;;;;;;;;;;;;;;23.46;48.98;100784.91;7285630;19;153968;-64
2022/07/25 12:04:11;;;;;;;;;;;;;;;23.52;49.39;100776.28;7282282;19;152211;-64
2022/07/25 12:06:38;;;;;;;;;;;;;;;23.45;49.27;100769.16;7289010;19;153151;-63
2022/07/25 12:09:12;;;;;;;;;;;;;;;23.45;49.43;100777.59;7286331;19;153097;-63
2022/07/25 12:11:45;;;;;;;;;;;;;;;23.51;49.27;100771.81;7289146;19;152642;-63
2022/07/25 12:14:12;;;;;;;;;;;;;;;23.49;49.22;100772.97;7287837;19;153131;-64
2022/07/25 12:16:38;;;;;;;;;;;;;;;23.56;49.04;100774.47;7286764;19;152445;-63
2022/07/25 12:19:16;;;;;;;;;;;;;;;23.49;49.10;100769.31;7289288;19;152330;-64
2022/07/25 12:21:44;;;;;;;;;;;;;;;23.52;49.10;100787.56;7285369;19;154157;-63
2022/07/25 12:24:10;;;;;;;;;;;;;;;23.59;48.47;100780.25;7286914;19;152027;-64
2022/07/25 12:26:37;;;;;;;;;;;;;;;23.57;48.54;100776.97;7287558;19;153452;-63
2022/07/25 12:29:04;;;;;;;;;;;;;;;23.53;48.42;100769.50;7286569;19;153079;-63
2022/07/25 12:31:32;;;;;;;;;;;;;;;23.48;47.92;100774.13;7287615;19;152127;-64
2022/07/25 12:33:58;;;;;;;;;;;;;;;23.49;48.25;100760.84;7282918;19;153581;-63
2022/07/25 12:36:25;;;;;;;;;;;;;;;23.51;48.24;100767.00;7285620;19;153225;-64
2022/07/25 12:38:52;;;;;;;;;;;;;;;23.54;48.25;100762.66;7286432;19;151983;-64
2022/07/25 12:41:21;;;;;;;;;;;;;;;23.55;48.24;100756.69;7292425;19;152610;-63